West Blocton, Alabama
Current Conditions -  °F | °C
As of 7:53 AM on Thursday 29 Jan 2015 (Local Time) from KEET Reporting Station
Clear Clear  
Wind Chill: 40°   Ceiling: Unl
Heat Index: 44°   Visibility: 10mi
Dew Point: 33°   Wind: 7mph
Humidity: 65%   Direction: 160°SSE
Pressure: 30.26"   Gusts: NA
Location:  33.12°N, 87.12°W
Report Text: KEET 291353Z AUTO 16006KT 10SM CLR 07/01 A3026 RMK AO2 SLP249 T00670006
Loading
Personal Weather Stations






























Interactive Weather Map New forecast layout! Learn more

10-Day Weather Forecast

Advertisements
Track Severe Weather on mobile